Crystal Beach, Texas
Current Conditions -  °F | °C
As of 2:52 AM on Friday 31 Oct 2014 (Local Time) from KGLS Reporting Station
Broken Clouds Broken Clouds  
Wind Chill: 69°   Ceiling: 11000
Heat Index: 69°   Visibility: 10mi
Dew Point: 58°   Wind: 6mph
Humidity: 68%   Direction: 30°NNE
Pressure: 30.1"   Gusts: NA
Location:  29.4387°N, 94.6622°W
Report Text: KGLS 310752Z AUTO 03005KT 10SM BKN110 21/14 A3010 RMK AO2 SLP191 T02060144
Loading
Personal Weather Stations






























Interactive Weather Map
Tropical Storm Tracking
New forecast layout! Learn more

10-Day Weather Forecast

Advertisements
Track Severe Weather on mobile